createdAt,value
2023-03-26T00:01:46.656Z,100152.66
2023-03-26T00:03:54.574Z,100149.28
2023-03-26T00:06:04.419Z,100149.22
2023-03-26T00:08:09.887Z,100156.03
2023-03-26T00:10:15.417Z,100152.72
2023-03-26T00:12:18.879Z,100163.13
2023-03-26T00:14:22.417Z,100157.63
2023-03-26T00:16:27.817Z,100156.03
2023-03-26T00:18:32.200Z,100159.66
2023-03-26T00:20:38.305Z,100159.75
2023-03-26T00:22:42.372Z,100155.31
2023-03-26T00:24:47.393Z,100157.03
2023-03-26T00:26:53.489Z,100163.06
2023-03-26T00:28:57.597Z,100159.56
2023-03-26T00:31:02.914Z,100127.69
2023-03-26T00:33:07.684Z,100160.28
2023-03-26T00:35:13.076Z,100149.81
2023-03-26T00:37:18.304Z,100140.22
2023-03-26T00:39:21.770Z,100149.09
2023-03-26T00:41:30.834Z,100143.88
2023-03-26T00:43:36.031Z,100141.03
2023-03-26T00:45:39.383Z,100131.25
2023-03-26T00:47:43.672Z,100141.16
2023-03-26T00:49:48.793Z,100128.41
2023-03-26T00:51:52.976Z,100138.16
2023-03-26T00:53:58.577Z,100122.16
2023-03-26T00:56:02.271Z,100130.22
2023-03-26T00:58:06.225Z,100118.78
2023-03-26T01:00:14.177Z,100124.16
2023-03-26T01:02:20.856Z,100121.72
2023-03-26T01:04:30.739Z,100118.28
2023-03-26T01:06:36.494Z,100115.63
2023-03-26T01:08:43.214Z,100114.56
2023-03-26T01:10:50.925Z,100105.97
2023-03-26T01:12:54.540Z,100104.47
2023-03-26T01:15:00.650Z,100100.88
2023-03-26T01:17:05.946Z,100093.22
2023-03-26T01:19:30.369Z,100083.69
2023-03-26T01:21:34.450Z,100086.44
2023-03-26T01:23:42.920Z,100079.47
2023-03-26T01:25:55.941Z,100087.47
2023-03-26T01:28:00.905Z,100056.88
2023-03-26T01:30:12.324Z,100071.84
2023-03-26T01:32:30.942Z,100076.22
2023-03-26T01:34:49.648Z,100073.59
2023-03-26T01:37:00.400Z,100068.19
2023-03-26T01:39:10.297Z,100069.97
2023-03-26T01:41:18.941Z,100070.06
2023-03-26T01:43:33.445Z,100039.53
2023-03-26T01:45:40.991Z,100066.72
2023-03-26T01:47:46.317Z,100049.94
2023-03-26T01:49:49.756Z,100050.78
2023-03-26T01:51:55.197Z,100041.19
2023-03-26T01:53:59.114Z,100019.94
2023-03-26T01:56:13.279Z,100048.81
2023-03-26T01:58:28.574Z,100046.31
2023-03-26T02:00:34.675Z,100048.03
2023-03-26T02:02:50.169Z,100041.88
2023-03-26T02:04:58.293Z,100032.94
2023-03-26T02:07:07.867Z,100030.41
2023-03-26T02:09:15.463Z,100032.81
2023-03-26T02:11:19.982Z,100030.09
2023-03-26T02:13:26.527Z,100021.44
2023-03-26T02:15:30.028Z,100021.44
2023-03-26T02:17:33.435Z,100019.66
2023-03-26T02:19:37.326Z,100020.09
2023-03-26T02:21:40.730Z,99917.22
2023-03-26T02:23:46.611Z,99984.03
2023-03-26T02:25:50.040Z,100002.63
2023-03-26T02:27:54.496Z,100002.44
2023-03-26T02:29:59.234Z,99987.56
2023-03-26T02:32:04.738Z,99984.72
2023-03-26T02:34:08.297Z,99969.03
2023-03-26T02:36:18.429Z,99978.47
2023-03-26T02:38:25.482Z,99968.63
2023-03-26T02:40:29.566Z,99974.84
2023-03-26T02:42:33.961Z,99964.72
2023-03-26T02:44:40.093Z,99955.03
2023-03-26T02:47:10.910Z,99954.19
2023-03-26T02:49:30.116Z,99951.13
2023-03-26T02:51:34.821Z,99945.75
2023-03-26T02:53:51.156Z,99939.19
2023-03-26T02:56:03.353Z,99939.84
2023-03-26T02:58:17.459Z,99931.75
2023-03-26T03:00:22.720Z,99935.34
2023-03-26T03:02:29.278Z,99932.97
2023-03-26T03:04:38.041Z,99924.06
2023-03-26T03:06:41.574Z,99927.78
2023-03-26T03:08:46.007Z,99923.22
2023-03-26T03:11:17.347Z,99917.97
2023-03-26T03:13:23.101Z,99916.38
2023-03-26T03:15:27.268Z,99922.41
2023-03-26T03:17:32.161Z,99918.84
2023-03-26T03:19:35.480Z,99912.75
2023-03-26T03:21:38.899Z,99914.53
2023-03-26T03:23:43.211Z,99914.00
2023-03-26T03:25:52.341Z,99907.84
2023-03-26T03:27:56.228Z,99913.34
2023-03-26T03:29:59.648Z,99902.22
2023-03-26T03:32:22.588Z,99901.38
2023-03-26T03:34:29.349Z,99895.28
2023-03-26T03:36:38.291Z,99900.56
2023-03-26T03:38:51.172Z,99897.16
2023-03-26T03:40:57.259Z,99897.38
2023-03-26T03:43:04.117Z,99890.50
2023-03-26T03:45:16.607Z,99891.34
2023-03-26T03:47:42.959Z,99893.91
2023-03-26T03:49:47.935Z,99892.13
2023-03-26T03:51:51.392Z,99879.91
2023-03-26T03:54:03.299Z,99883.38
2023-03-26T03:56:29.164Z,99878.06
2023-03-26T03:58:51.553Z,99881.72
2023-03-26T04:01:04.392Z,99870.41
2023-03-26T04:03:38.840Z,99872.13
2023-03-26T04:05:55.042Z,99860.19
2023-03-26T04:08:01.415Z,99864.47
2023-03-26T04:10:06.632Z,99845.06
2023-03-26T04:12:33.225Z,99860.94
2023-03-26T04:14:38.483Z,99856.72
2023-03-26T04:16:49.948Z,99839.72
2023-03-26T04:18:53.398Z,99849.47
2023-03-26T04:21:02.351Z,99846.09
2023-03-26T04:23:13.988Z,99827.13
2023-03-26T04:25:19.098Z,99839.31
2023-03-26T04:27:36.772Z,99831.56
2023-03-26T04:30:02.215Z,99817.81
2023-03-26T04:32:07.316Z,99819.66
2023-03-26T04:34:18.654Z,99817.91
2023-03-26T04:36:35.484Z,99811.00
2023-03-26T04:38:42.857Z,99804.91
2023-03-26T04:40:48.448Z,99800.75
2023-03-26T04:43:13.003Z,99781.69
2023-03-26T04:45:34.915Z,99793.91
2023-03-26T04:47:39.032Z,99788.75
2023-03-26T04:49:43.065Z,99793.16
2023-03-26T04:51:48.376Z,99786.25
2023-03-26T04:54:30.350Z,99786.94
2023-03-26T04:56:44.308Z,99790.03
2023-03-26T04:58:51.923Z,99782.06
2023-03-26T05:00:57.250Z,99776.88
2023-03-26T05:03:01.705Z,99767.31
2023-03-26T05:05:06.037Z,99765.59
2023-03-26T05:07:14.881Z,99761.19
2023-03-26T05:09:23.730Z,99769.00
2023-03-26T05:11:44.659Z,99749.47
2023-03-26T05:13:48.477Z,99764.38
2023-03-26T05:15:53.535Z,99759.28
2023-03-26T05:18:08.810Z,99760.19
2023-03-26T05:20:21.326Z,99767.19
2023-03-26T05:22:26.276Z,99761.94
2023-03-26T05:24:56.277Z,99753.94
2023-03-26T05:26:59.726Z,99759.03
2023-03-26T05:29:03.460Z,99744.13
2023-03-26T05:31:12.626Z,99737.09
2023-03-26T05:33:21.181Z,99734.50
2023-03-26T05:35:36.628Z,99736.22
2023-03-26T05:37:44.274Z,99730.13
2023-03-26T05:39:48.465Z,99726.75
2023-03-26T05:42:10.437Z,99710.16
2023-03-26T05:44:35.287Z,99711.06
2023-03-26T05:46:43.711Z,99713.78
2023-03-26T05:48:55.221Z,99713.88
2023-03-26T05:50:59.924Z,99709.63
2023-03-26T05:53:07.050Z,99707.88
2023-03-26T05:55:40.642Z,99697.19
2023-03-26T05:58:02.760Z,99698.94
2023-03-26T06:00:25.145Z,99697.13
2023-03-26T06:02:30.430Z,99702.41
2023-03-26T06:05:01.216Z,99693.59
2023-03-26T06:07:21.183Z,99695.28
2023-03-26T06:09:40.877Z,99696.88
2023-03-26T06:11:44.277Z,99695.03
2023-03-26T06:13:50.757Z,99677.66
2023-03-26T06:15:54.481Z,99687.28
2023-03-26T06:18:02.977Z,99681.22
2023-03-26T06:20:13.380Z,99675.22
2023-03-26T06:22:19.982Z,99671.69
2023-03-26T06:24:52.809Z,99668.19
2023-03-26T06:27:00.710Z,99673.50
2023-03-26T06:29:21.834Z,99662.25
2023-03-26T06:31:54.108Z,99639.84
2023-03-26T06:34:11.435Z,99645.16
2023-03-26T06:36:14.867Z,99643.38
2023-03-26T06:38:18.358Z,99634.56
2023-03-26T06:40:23.319Z,99643.94
2023-03-26T06:43:07.816Z,99627.50
2023-03-26T06:45:24.995Z,99630.09
2023-03-26T06:47:46.850Z,99631.72
2023-03-26T06:49:59.260Z,99640.47
2023-03-26T06:52:12.899Z,99630.84
2023-03-26T06:54:40.296Z,99635.13
2023-03-26T06:57:07.887Z,99633.16
2023-03-26T06:59:20.758Z,99634.00
2023-03-26T07:01:45.857Z,99634.81
2023-03-26T07:04:12.846Z,99628.59
2023-03-26T07:06:34.556Z,99624.34
2023-03-26T07:08:57.420Z,99617.47
2023-03-26T07:11:20.779Z,99617.47
2023-03-26T07:13:57.341Z,99617.38
2023-03-26T07:16:19.181Z,99600.00
2023-03-26T07:18:52.148Z,99600.22
2023-03-26T07:20:59.271Z,99554.00
2023-03-26T07:23:07.518Z,99594.44
2023-03-26T07:25:19.676Z,99583.03
2023-03-26T07:27:54.176Z,99583.06
2023-03-26T07:30:15.637Z,99588.09
2023-03-26T07:32:54.015Z,99586.41
2023-03-26T07:35:42.527Z,99573.31
2023-03-26T07:38:19.940Z,99588.09
2023-03-26T07:40:51.987Z,99582.78
2023-03-26T07:43:40.302Z,99574.91
2023-03-26T07:46:25.934Z,99573.19
2023-03-26T07:48:48.785Z,99572.25
2023-03-26T07:51:08.557Z,99580.94
2023-03-26T07:53:42.667Z,99571.44
2023-03-26T07:56:03.743Z,99573.94
2023-03-26T07:58:43.143Z,99566.94
2023-03-26T08:01:00.322Z,99565.16
2023-03-26T08:03:26.790Z,99562.59
2023-03-26T08:05:35.376Z,99527.75
2023-03-26T08:07:57.204Z,99557.34
2023-03-26T08:10:15.631Z,99503.94
2023-03-26T08:12:41.737Z,99552.22
2023-03-26T08:14:52.584Z,99531.22
2023-03-26T08:17:00.652Z,99556.50
2023-03-26T08:19:16.643Z,99556.50
2023-03-26T08:21:25.201Z,99549.56
2023-03-26T08:23:32.904Z,99551.47
2023-03-26T08:25:49.756Z,99543.56
2023-03-26T08:28:05.070Z,99554.06
2023-03-26T08:30:15.944Z,99550.63
2023-03-26T08:32:20.407Z,99530.41
2023-03-26T08:34:25.545Z,99544.59
2023-03-26T08:36:29.524Z,99548.16
2023-03-26T08:38:32.866Z,99553.19
2023-03-26T08:40:57.816Z,99546.31
2023-03-26T08:43:46.542Z,99550.69
2023-03-26T08:46:21.246Z,99542.97
2023-03-26T08:49:12.758Z,99535.19
2023-03-26T08:51:55.808Z,99530.03
2023-03-26T08:54:34.724Z,99536.00
2023-03-26T08:56:51.473Z,99532.47
2023-03-26T08:59:17.908Z,99521.19
2023-03-26T09:01:38.522Z,99522.09
2023-03-26T09:04:02.976Z,99533.63
2023-03-26T09:06:28.716Z,99507.41
2023-03-26T09:09:09.014Z,99527.50
2023-03-26T09:11:51.929Z,99530.03
2023-03-26T09:14:39.761Z,99532.53
2023-03-26T09:17:02.218Z,99523.88
2023-03-26T09:19:42.456Z,99521.34
2023-03-26T09:22:11.325Z,99513.44
2023-03-26T09:24:31.342Z,99516.03
2023-03-26T09:26:46.803Z,99514.78
2023-03-26T09:29:20.158Z,99500.97
2023-03-26T09:31:57.859Z,99508.03
2023-03-26T09:34:20.229Z,99503.66
2023-03-26T09:36:51.518Z,99502.78
2023-03-26T09:39:04.188Z,99493.34
2023-03-26T09:41:15.009Z,99435.72
2023-03-26T09:43:44.668Z,99490.91
2023-03-26T09:46:01.372Z,99481.38
2023-03-26T09:48:32.893Z,99478.69
2023-03-26T09:50:53.934Z,99470.75
2023-03-26T09:53:22.366Z,99446.94
2023-03-26T09:55:40.400Z,99471.56
2023-03-26T09:58:15.386Z,99462.84
2023-03-26T10:00:30.215Z,99469.75
2023-03-26T10:03:13.868Z,99468.06
2023-03-26T10:05:39.020Z,99452.44
2023-03-26T10:08:16.408Z,99459.44
2023-03-26T10:10:27.927Z,99445.44
2023-03-26T10:12:38.265Z,99457.59
2023-03-26T10:14:47.389Z,99455.13
2023-03-26T10:17:06.118Z,99445.81
2023-03-26T10:19:39.676Z,99451.03
2023-03-26T10:21:48.477Z,99439.75
2023-03-26T10:24:05.929Z,99437.13
2023-03-26T10:26:24.458Z,99435.28
2023-03-26T10:28:47.504Z,99436.16
2023-03-26T10:31:27.644Z,99426.63
2023-03-26T10:33:43.128Z,99428.47
2023-03-26T10:36:00.702Z,99427.75
2023-03-26T10:38:16.926Z,99421.56
2023-03-26T10:40:28.149Z,99422.31
2023-03-26T10:42:50.518Z,99422.47
2023-03-26T10:45:14.194Z,99415.59
2023-03-26T10:47:34.354Z,99410.31
2023-03-26T10:50:00.692Z,99416.63
2023-03-26T10:52:07.376Z,99405.34
2023-03-26T10:54:19.209Z,99405.50
2023-03-26T10:56:29.233Z,99409.06
2023-03-26T10:58:48.857Z,99375.03
2023-03-26T11:01:02.581Z,99402.03
2023-03-26T11:03:20.613Z,99392.66
2023-03-26T11:05:33.232Z,99398.66
2023-03-26T11:07:45.512Z,99399.66
2023-03-26T11:09:59.313Z,99376.03
2023-03-26T11:12:26.416Z,99388.19
2023-03-26T11:14:39.814Z,99389.09
2023-03-26T11:16:59.160Z,99394.34
2023-03-26T11:19:09.103Z,99397.72
2023-03-26T11:21:20.768Z,99386.41
2023-03-26T11:23:36.081Z,99386.47
2023-03-26T11:25:51.360Z,99374.41
2023-03-26T11:28:11.256Z,99385.06
2023-03-26T11:30:28.234Z,99386.88
2023-03-26T11:32:41.927Z,99382.53
2023-03-26T11:34:55.023Z,99377.31
2023-03-26T11:36:59.843Z,99378.25
2023-03-26T11:39:08.755Z,99325.81
2023-03-26T11:41:15.796Z,99377.25
2023-03-26T11:43:37.550Z,99373.00
2023-03-26T11:45:46.039Z,99375.66
2023-03-26T11:47:53.861Z,99375.59
2023-03-26T11:50:01.206Z,99335.41
2023-03-26T11:52:05.137Z,99366.13
2023-03-26T11:54:11.097Z,99322.56
2023-03-26T11:56:20.485Z,99297.31
2023-03-26T11:58:30.968Z,99362.88
2023-03-26T12:00:35.063Z,99345.50
2023-03-26T12:02:40.654Z,99367.53
2023-03-26T12:04:47.024Z,99371.06
2023-03-26T12:06:57.703Z,99347.66
2023-03-26T12:09:01.418Z,99368.72
2023-03-26T12:11:10.404Z,99363.53
2023-03-26T12:13:30.495Z,99360.84
2023-03-26T12:15:34.048Z,99371.38
2023-03-26T12:17:40.159Z,99367.13
2023-03-26T12:19:46.476Z,99361.06
2023-03-26T12:21:51.525Z,99355.91
2023-03-26T12:23:58.546Z,99360.28
2023-03-26T12:26:13.072Z,99359.44
2023-03-26T12:28:21.486Z,99363.81
2023-03-26T12:30:26.969Z,99320.31
2023-03-26T12:32:45.237Z,99356.03
2023-03-26T12:34:51.388Z,99368.22
2023-03-26T12:36:56.983Z,99368.25
2023-03-26T12:39:42.599Z,99370.03
2023-03-26T12:44:43.455Z,99370.09
2023-03-26T12:44:56.210Z,99362.22
2023-03-26T12:47:58.376Z,99366.56
2023-03-26T12:49:16.017Z,99343.88
2023-03-26T12:51:31.506Z,99372.63
2023-03-26T12:53:50.212Z,99369.97
2023-03-26T12:56:01.766Z,99370.84
2023-03-26T12:58:21.046Z,99372.59
2023-03-26T13:00:35.929Z,99380.41
2023-03-26T13:03:16.300Z,99377.81
2023-03-26T13:05:37.054Z,99381.28
2023-03-26T13:07:59.793Z,99376.03
2023-03-26T13:10:45.506Z,99378.69
2023-03-26T13:13:02.156Z,99379.53
2023-03-26T13:15:18.078Z,99386.56
2023-03-26T13:17:27.127Z,99383.94
2023-03-26T13:19:40.354Z,99383.09
2023-03-26T13:21:59.052Z,99388.41
2023-03-26T13:24:14.587Z,99389.28
2023-03-26T13:26:29.665Z,99397.13
2023-03-26T13:28:42.078Z,99391.06
2023-03-26T13:30:53.225Z,99394.53
2023-03-26T13:33:13.211Z,99391.94
2023-03-26T13:35:28.221Z,99396.25
2023-03-26T13:37:40.614Z,99394.53
2023-03-26T13:39:55.133Z,99394.53
2023-03-26T13:42:10.816Z,99397.13
2023-03-26T13:44:27.344Z,99398.88
2023-03-26T13:46:36.102Z,99404.09
2023-03-26T13:48:48.402Z,99403.19
2023-03-26T13:51:01.572Z,99374.31
2023-03-26T13:53:10.971Z,99382.13
2023-03-26T13:55:23.341Z,99412.63
2023-03-26T13:57:31.762Z,99406.53
2023-03-26T13:59:41.585Z,99410.84
2023-03-26T14:01:51.337Z,99420.44
2023-03-26T14:04:00.280Z,99416.97
2023-03-26T14:06:11.908Z,99414.41
2023-03-26T14:08:21.058Z,99422.31
2023-03-26T14:10:30.718Z,99421.41
2023-03-26T14:12:48.996Z,99431.91
2023-03-26T14:14:58.175Z,99387.41
2023-03-26T14:17:07.600Z,99393.44
2023-03-26T14:19:33.640Z,99426.59
2023-03-26T14:21:51.312Z,99429.22
2023-03-26T14:24:17.624Z,99434.44
2023-03-26T14:26:37.232Z,99438.84
2023-03-26T14:29:16.556Z,99432.78
2023-03-26T14:31:25.522Z,99432.81
2023-03-26T14:33:42.778Z,99442.44
2023-03-26T14:35:58.797Z,99449.34
2023-03-26T14:38:45.988Z,99449.34
2023-03-26T14:40:58.180Z,99447.50
2023-03-26T14:43:41.817Z,99460.50
2023-03-26T14:46:00.662Z,99463.94
2023-03-26T14:48:32.860Z,99454.41
2023-03-26T14:50:55.158Z,99444.84
2023-03-26T14:53:04.357Z,99464.03
2023-03-26T14:55:19.672Z,99455.28
2023-03-26T14:57:50.204Z,99464.00
2023-03-26T15:00:22.286Z,99474.41
2023-03-26T15:03:03.464Z,99476.06
2023-03-26T15:05:40.215Z,99485.63
2023-03-26T15:08:05.735Z,99480.47
2023-03-26T15:10:49.536Z,99484.00
2023-03-26T15:13:10.056Z,99491.84
2023-03-26T15:15:54.104Z,99485.69
2023-03-26T15:18:31.238Z,99478.66
2023-03-26T15:21:25.407Z,99476.03
2023-03-26T15:23:55.700Z,99394.78
2023-03-26T15:26:28.974Z,99495.88
2023-03-26T15:29:19.041Z,99498.44
2023-03-26T15:31:58.632Z,99500.06
2023-03-26T15:34:30.383Z,99506.16
2023-03-26T15:37:13.380Z,99510.50
2023-03-26T15:40:10.138Z,99514.03
2023-03-26T15:42:24.757Z,99512.28
2023-03-26T15:44:53.042Z,99518.34
2023-03-26T15:47:02.925Z,99509.59
2023-03-26T15:49:16.447Z,99498.22
2023-03-26T15:51:32.995Z,99527.94
2023-03-26T15:53:56.820Z,99528.75
2023-03-26T15:56:16.069Z,99534.81
2023-03-26T15:58:27.133Z,99542.72
2023-03-26T16:00:34.659Z,99544.44
2023-03-26T16:02:49.992Z,99520.78
2023-03-26T16:04:57.648Z,99549.53
2023-03-26T16:07:09.460Z,99551.28
2023-03-26T16:09:27.112Z,99560.78
2023-03-26T16:11:56.900Z,99566.00
2023-03-26T16:14:17.637Z,99567.63
2023-03-26T16:16:46.017Z,99569.28
2023-03-26T16:18:55.418Z,99577.09
2023-03-26T16:21:34.335Z,99577.09
2023-03-26T16:23:55.502Z,99582.25
2023-03-26T16:26:12.144Z,99584.03
2023-03-26T16:28:30.318Z,99590.09
2023-03-26T16:30:35.474Z,99591.88
2023-03-26T16:32:42.474Z,99598.81
2023-03-26T16:34:52.781Z,99609.31
2023-03-26T16:36:59.522Z,99605.84
2023-03-26T16:39:22.497Z,99607.66
2023-03-26T16:41:28.201Z,99615.44
2023-03-26T16:43:45.414Z,99618.91
2023-03-26T16:45:56.664Z,99630.16
2023-03-26T16:48:10.064Z,99629.13
2023-03-26T16:50:24.483Z,99642.94
2023-03-26T16:52:45.198Z,99644.59
2023-03-26T16:54:52.813Z,99648.00
2023-03-26T16:57:01.529Z,99651.53
2023-03-26T16:59:10.172Z,99610.38
2023-03-26T17:01:27.086Z,99667.94
2023-03-26T17:03:37.608Z,99672.03
2023-03-26T17:06:02.159Z,99662.38
2023-03-26T17:08:14.894Z,99662.25
2023-03-26T17:10:30.747Z,99683.28
2023-03-26T17:12:41.196Z,99682.44
2023-03-26T17:14:56.433Z,99693.69
2023-03-26T17:17:24.741Z,99665.56
2023-03-26T17:19:36.350Z,99702.19
2023-03-26T17:21:51.020Z,99703.09
2023-03-26T17:24:07.885Z,99704.88
2023-03-26T17:26:29.361Z,99717.06
2023-03-26T17:29:00.155Z,99714.53
2023-03-26T17:31:06.703Z,99718.69
2023-03-26T17:33:23.740Z,99737.84
2023-03-26T17:35:42.390Z,99713.44
2023-03-26T17:37:48.075Z,99740.53
2023-03-26T17:40:36.023Z,99751.47
2023-03-26T17:42:39.838Z,99764.53
2023-03-26T17:44:49.552Z,99755.69
2023-03-26T17:46:57.227Z,99768.00
2023-03-26T17:49:09.367Z,99775.72
2023-03-26T17:51:37.046Z,99774.75
2023-03-26T17:53:42.619Z,99785.16
2023-03-26T17:55:48.227Z,99792.13
2023-03-26T17:57:55.658Z,99786.63
2023-03-26T18:00:00.776Z,99801.56
2023-03-26T18:02:06.911Z,99811.03
2023-03-26T18:04:18.558Z,99807.22
2023-03-26T18:06:45.936Z,99815.88
2023-03-26T18:09:06.563Z,99822.00
2023-03-26T18:11:50.843Z,99829.59
2023-03-26T18:14:26.985Z,99817.00
2023-03-26T18:16:37.581Z,99828.66
2023-03-26T18:18:49.032Z,99842.22
2023-03-26T18:20:55.036Z,99748.38
2023-03-26T18:22:58.815Z,99826.53
2023-03-26T18:25:03.527Z,99849.22
2023-03-26T18:27:12.306Z,99859.69
2023-03-26T18:29:23.778Z,99861.41
2023-03-26T18:31:27.903Z,99878.91
2023-03-26T18:33:43.006Z,99854.97
2023-03-26T18:35:51.738Z,99882.19
2023-03-26T18:38:00.055Z,99880.53
2023-03-26T18:40:11.922Z,99896.09
2023-03-26T18:42:23.242Z,99881.94
2023-03-26T18:44:28.691Z,99894.97
2023-03-26T18:46:33.477Z,99905.19
2023-03-26T18:48:38.041Z,99903.41
2023-03-26T18:50:42.745Z,99913.94
2023-03-26T18:52:46.375Z,99918.03
2023-03-26T18:54:53.507Z,99913.16
2023-03-26T18:56:58.821Z,99923.75
2023-03-26T18:59:03.788Z,99922.03
2023-03-26T19:01:20.211Z,99926.41
2023-03-26T19:03:29.685Z,99941.31
2023-03-26T19:05:34.563Z,99940.41
2023-03-26T19:07:39.080Z,99937.53
2023-03-26T19:09:43.608Z,99944.16
2023-03-26T19:11:50.462Z,99955.41
2023-03-26T19:14:03.982Z,99945.56
2023-03-26T19:16:17.726Z,99956.91
2023-03-26T19:18:24.936Z,99962.88
2023-03-26T19:20:30.637Z,99972.56
2023-03-26T19:22:34.882Z,99979.66
2023-03-26T19:24:38.747Z,99969.22
2023-03-26T19:26:42.109Z,99874.03
2023-03-26T19:28:51.379Z,99982.22
2023-03-26T19:30:57.458Z,99998.47
2023-03-26T19:33:12.911Z,100003.47
2023-03-26T19:35:22.819Z,99969.41
2023-03-26T19:37:29.888Z,100011.56
2023-03-26T19:39:41.499Z,100018.53
2023-03-26T19:41:50.771Z,99974.56
2023-03-26T19:43:57.988Z,100019.28
2023-03-26T19:46:01.538Z,100023.88
2023-03-26T19:48:15.056Z,100022.50
2023-03-26T19:50:26.254Z,99985.84
2023-03-26T19:52:34.805Z,100039.22
2023-03-26T19:54:59.318Z,100025.69
2023-03-26T19:57:05.823Z,100044.38
2023-03-26T19:59:10.633Z,100047.47
2023-03-26T20:01:18.657Z,100045.66
2023-03-26T20:03:29.488Z,100031.25
2023-03-26T20:05:36.341Z,100053.78
2023-03-26T20:07:40.594Z,100062.44
2023-03-26T20:09:45.393Z,100055.19
2023-03-26T20:11:49.601Z,100072.53
2023-03-26T20:13:53.314Z,100064.00
2023-03-26T20:16:05.783Z,100079.59
2023-03-26T20:18:09.857Z,100077.94
2023-03-26T20:20:15.734Z,100071.03
2023-03-26T20:22:20.945Z,100082.25
2023-03-26T20:24:25.384Z,100031.78
2023-03-26T20:26:29.125Z,100052.69
2023-03-26T20:28:38.778Z,100086.13
2023-03-26T20:30:54.387Z,100110.56
2023-03-26T20:33:11.904Z,100073.34
2023-03-26T20:35:19.129Z,100109.19
2023-03-26T20:37:39.186Z,100113.59
2023-03-26T20:39:42.537Z,100118.69
2023-03-26T20:41:49.983Z,100105.44
2023-03-26T20:43:53.789Z,100133.38
2023-03-26T20:45:58.421Z,100136.28
2023-03-26T20:48:03.676Z,100139.06
2023-03-26T20:50:08.097Z,100148.81
2023-03-26T20:52:15.346Z,100146.16
2023-03-26T20:54:21.781Z,100152.38
2023-03-26T20:56:25.388Z,100152.34
2023-03-26T20:58:31.981Z,100161.22
2023-03-26T21:00:37.126Z,100166.84
2023-03-26T21:02:42.037Z,100168.72
2023-03-26T21:04:48.595Z,100171.41
2023-03-26T21:06:55.095Z,100182.19
2023-03-26T21:09:01.686Z,100187.56
2023-03-26T21:11:14.281Z,100186.56
2023-03-26T21:13:37.714Z,100198.38
2023-03-26T21:15:41.820Z,100194.78
2023-03-26T21:17:46.090Z,100157.94
2023-03-26T21:19:51.911Z,100201.50
2023-03-26T21:22:04.712Z,100215.13
2023-03-26T21:24:16.291Z,100221.06
2023-03-26T21:26:26.429Z,100232.53
2023-03-26T21:28:41.947Z,100230.81
2023-03-26T21:30:46.943Z,100228.94
2023-03-26T21:32:51.374Z,100241.28
2023-03-26T21:34:58.948Z,100245.50
2023-03-26T21:37:03.480Z,100246.25
2023-03-26T21:39:07.695Z,100251.06
2023-03-26T21:41:17.190Z,100258.09
2023-03-26T21:43:22.251Z,100262.31
2023-03-26T21:45:26.656Z,100268.28
2023-03-26T21:47:30.957Z,100233.41
2023-03-26T21:49:35.148Z,100281.28
2023-03-26T21:51:41.245Z,100277.69
2023-03-26T21:53:44.982Z,100281.59
2023-03-26T21:56:00.945Z,100290.34
2023-03-26T21:58:27.912Z,100299.00
2023-03-26T22:00:43.664Z,100307.00
2023-03-26T22:03:08.323Z,100307.78
2023-03-26T22:05:15.711Z,100322.28
2023-03-26T22:07:23.769Z,100322.75
2023-03-26T22:11:37.141Z,100334.50
2023-03-26T22:13:40.568Z,100337.78
2023-03-26T22:15:44.773Z,100338.59
2023-03-26T22:17:53.792Z,100353.97
2023-03-26T22:19:57.401Z,100362.50
2023-03-26T22:22:00.876Z,100368.63
2023-03-26T22:24:07.081Z,100380.66
2023-03-26T22:26:10.415Z,100390.16
2023-03-26T22:28:13.732Z,100388.41
2023-03-26T22:30:17.963Z,100342.28
2023-03-26T22:32:21.277Z,100399.19
2023-03-26T22:34:24.889Z,100404.09
2023-03-26T22:36:28.290Z,100406.06
2023-03-26T22:38:31.678Z,100408.31
2023-03-26T22:40:36.358Z,100377.19
2023-03-26T22:42:39.720Z,100421.16
2023-03-26T22:44:42.997Z,100424.22
2023-03-26T22:46:49.130Z,100430.41
2023-03-26T22:48:54.682Z,100447.72
2023-03-26T22:50:59.391Z,100415.94
2023-03-26T22:53:02.733Z,100446.06
2023-03-26T22:55:06.580Z,100456.84
2023-03-26T22:57:11.970Z,100455.91
2023-03-26T22:59:15.292Z,100463.72
2023-03-26T23:01:21.850Z,100414.13
2023-03-26T23:03:35.287Z,100471.25
2023-03-26T23:05:38.883Z,100471.38
2023-03-26T23:07:42.467Z,100481.41
2023-03-26T23:09:45.921Z,100480.28
2023-03-26T23:11:49.627Z,100489.44
2023-03-26T23:13:54.252Z,100489.81
2023-03-26T23:15:57.938Z,100493.94
2023-03-26T23:18:03.963Z,100501.63
2023-03-26T23:20:14.640Z,100510.38
2023-03-26T23:22:18.429Z,100505.91
2023-03-26T23:24:21.717Z,100514.28
2023-03-26T23:26:26.036Z,100516.53
2023-03-26T23:28:31.999Z,100469.63
2023-03-26T23:30:36.666Z,100531.81
2023-03-26T23:32:41.024Z,100543.59
2023-03-26T23:34:52.429Z,100547.59
2023-03-26T23:36:57.971Z,100553.66
2023-03-26T23:39:01.589Z,100549.50
2023-03-26T23:41:05.798Z,100553.66
2023-03-26T23:43:09.570Z,100528.63
2023-03-26T23:45:13.271Z,100566.41
2023-03-26T23:47:22.119Z,100574.97
2023-03-26T23:49:25.897Z,100572.69
2023-03-26T23:51:30.076Z,100582.06
2023-03-26T23:53:34.206Z,100589.53
2023-03-26T23:55:37.950Z,100540.66
2023-03-26T23:57:41.418Z,100589.19
2023-03-26T23:59:46.296Z,100594.22
